Time;durP1;ratioP1;P1;durP2;ratioP2;P2;SDS_P1;SDS_P2;PMS_P1;PMS_P2;Temp;Humidity;BMP_temperature;BMP_pressure;BME280_temperature;BME280_humidity;BME280_pressure;Samples;Min_cycle;Max_cycle;Signal;HPM_P1;HPM_P2
2022/09/20 00:00:53;;;;;;;10.00;2.22;;;11.30;99.90;;;;;;3057904;19;20011;-72
2022/09/20 00:01:54;;;;;;;9.77;1.90;;;11.30;99.90;;;;;;3058057;19;20017;-72
2022/09/20 00:02:58;;;;;;;8.57;1.70;;;11.00;99.90;;;;;;3057614;19;20018;-72
2022/09/20 00:04:03;;;;;;;11.70;2.22;;;11.60;99.90;;;;;;3058295;19;19998;-72
2022/09/20 00:05:08;;;;;;;8.15;2.03;;;11.40;99.90;;;;;;3057952;19;20019;-72
2022/09/20 00:06:13;;;;;;;8.32;1.90;;;11.10;99.90;;;;;;3057893;19;20010;-72
2022/09/20 00:07:17;;;;;;;6.88;1.63;;;11.50;99.90;;;;;;3057572;19;20046;-72
2022/09/20 00:08:18;;;;;;;12.27;2.22;;;11.10;99.90;;;;;;3058397;19;20033;-72
2022/09/20 00:09:24;;;;;;;7.85;1.73;;;10.90;99.90;;;;;;3059654;19;20014;-72
2022/09/20 00:10:26;;;;;;;8.35;1.70;;;11.10;99.90;;;;;;3058040;19;19999;-71
2022/09/20 00:11:32;;;;;;;6.80;1.90;;;11.30;99.90;;;;;;3057986;19;20014;-71
2022/09/20 00:12:33;;;;;;;10.63;2.20;;;11.30;99.90;;;;;;3057083;19;20019;-71
2022/09/20 00:13:38;;;;;;;9.57;1.60;;;11.10;99.90;;;;;;3057996;19;20011;-71
2022/09/20 00:14:40;;;;;;;7.82;2.15;;;11.10;99.90;;;;;;3058003;19;20003;-71
2022/09/20 00:15:45;;;;;;;8.70;2.40;;;11.10;99.90;;;;;;3057988;19;20110;-71
2022/09/20 00:16:47;;;;;;;8.65;1.98;;;;;;;;;;3057932;19;20006;-71
2022/09/20 00:17:50;;;;;;;8.25;1.58;;;11.50;99.90;;;;;;3057297;19;20017;-71
2022/09/20 00:18:53;;;;;;;7.25;2.28;;;11.10;99.90;;;;;;3057294;19;20459;-71
2022/09/20 00:19:57;;;;;;;7.88;1.60;;;11.00;99.90;;;;;;3058420;19;20015;-72
2022/09/20 00:20:59;;;;;;;7.60;1.50;;;11.10;99.90;;;;;;3057790;19;20021;-71
2022/09/20 00:22:03;;;;;;;6.60;1.60;;;11.00;99.90;;;;;;3057419;19;20042;-71
2022/09/20 00:23:04;;;;;;;9.05;1.65;;;11.00;99.90;;;;;;3059596;19;20035;-72
2022/09/20 00:24:08;;;;;;;9.15;1.70;;;11.40;99.90;;;;;;3058142;19;20468;-73
2022/09/20 00:25:12;;;;;;;8.05;2.25;;;11.10;99.90;;;;;;3057754;19;20010;-72
2022/09/20 00:26:16;;;;;;;9.52;2.20;;;11.10;99.90;;;;;;3057879;19;20071;-71
2022/09/20 00:27:17;;;;;;;6.97;1.75;;;11.00;99.90;;;;;;3057858;19;20014;-71
2022/09/20 00:28:21;;;;;;;9.93;2.00;;;11.10;99.90;;;;;;3056407;19;20018;-72
2022/09/20 00:29:22;;;;;;;13.07;2.30;;;11.00;99.90;;;;;;3058145;19;20372;-72
2022/09/20 00:30:26;;;;;;;8.20;1.50;;;11.10;99.90;;;;;;3058275;19;20009;-71
2022/09/20 00:31:30;;;;;;;13.88;2.60;;;11.40;99.90;;;;;;3057796;19;20341;-72
2022/09/20 00:32:32;;;;;;;8.60;1.95;;;;;;;;;;3057619;19;20023;-71
2022/09/20 00:36:09;;;;;;;11.35;2.47;;;11.10;99.90;;;;;;3057419;19;20110;-73
2022/09/20 00:37:12;;;;;;;8.82;1.90;;;11.00;99.90;;;;;;3056654;19;20018;-72
2022/09/20 00:38:16;;;;;;;9.45;1.75;;;11.00;99.90;;;;;;3057491;19;20022;-72
2022/09/20 00:39:18;;;;;;;10.38;1.73;;;11.10;99.90;;;;;;3058138;19;20337;-72
2022/09/20 00:40:26;;;;;;;6.53;2.65;;;11.00;99.90;;;;;;3057636;19;20006;-71
2022/09/20 00:41:29;;;;;;;8.65;2.00;;;11.50;99.90;;;;;;3057650;19;20018;-72
2022/09/20 00:42:34;;;;;;;8.88;1.80;;;11.10;99.90;;;;;;3056590;19;20011;-71
2022/09/20 00:43:37;;;;;;;9.35;2.00;;;11.40;99.90;;;;;;3056955;19;20010;-71
2022/09/20 00:44:57;;;;;;;8.48;1.90;;;11.50;99.90;;;;;;3056459;19;20018;-71
2022/09/20 00:46:00;;;;;;;13.68;2.00;;;11.00;99.90;;;;;;3057021;19;20286;-71
2022/09/20 00:47:05;;;;;;;6.35;1.50;;;11.20;99.90;;;;;;3059394;19;20434;-71
2022/09/20 00:48:15;;;;;;;11.13;1.75;;;11.10;99.90;;;;;;3057164;19;20017;-71
2022/09/20 00:49:24;;;;;;;9.40;2.10;;;11.10;99.90;;;;;;3057526;19;20014;-71
2022/09/20 00:50:37;;;;;;;10.35;1.67;;;11.00;99.90;;;;;;3057500;19;20085;-71
2022/09/20 00:51:41;;;;;;;10.43;2.05;;;11.10;99.90;;;;;;3057639;19;20014;-72
2022/09/20 00:52:49;;;;;;;11.75;1.95;;;11.00;99.90;;;;;;3053771;19;20014;-71
2022/09/20 00:53:53;;;;;;;10.50;2.00;;;11.00;99.90;;;;;;3057801;19;20002;-71
2022/09/20 00:54:58;;;;;;;6.75;1.63;;;11.10;99.90;;;;;;3055918;19;20038;-71
2022/09/20 00:56:08;;;;;;;10.32;2.42;;;10.90;99.90;;;;;;3060550;19;20387;-71
2022/09/20 00:57:10;;;;;;;7.45;1.70;;;11.20;99.90;;;;;;3060936;19;20015;-71
2022/09/20 00:58:15;;;;;;;8.48;1.73;;;11.20;99.90;;;;;;3060479;19;20507;-71
2022/09/20 00:59:19;;;;;;;6.90;1.85;;;10.70;99.90;;;;;;3059300;19;20082;-71
2022/09/20 01:00:24;;;;;;;7.57;2.10;;;10.90;99.90;;;;;;3060577;19;20010;-71
2022/09/20 01:01:26;;;;;;;8.02;1.77;;;11.00;99.90;;;;;;3060142;19;20015;-71
2022/09/20 01:02:32;;;;;;;8.40;1.98;;;11.10;99.90;;;;;;3057784;19;20110;-71
2022/09/20 01:03:41;;;;;;;7.75;1.65;;;10.60;99.90;;;;;;3059386;19;20010;-71
2022/09/20 01:04:45;;;;;;;6.38;1.88;;;10.90;99.90;;;;;;3059291;19;20014;-71
2022/09/20 01:05:48;;;;;;;8.77;2.17;;;10.90;99.90;;;;;;3060382;19;19998;-71
2022/09/20 01:06:53;;;;;;;10.93;1.70;;;11.00;99.90;;;;;;3060291;19;20010;-71
2022/09/20 01:07:58;;;;;;;8.40;1.83;;;11.00;99.90;;;;;;3060512;19;20074;-71
2022/09/20 01:09:03;;;;;;;10.82;1.80;;;10.80;99.90;;;;;;3060544;19;20014;-71
2022/09/20 01:10:08;;;;;;;6.60;1.80;;;10.80;99.90;;;;;;3058122;19;20032;-71
2022/09/20 01:11:12;;;;;;;7.50;1.85;;;10.70;99.90;;;;;;3060245;19;20471;-70
2022/09/20 01:12:20;;;;;;;10.27;1.85;;;10.80;99.90;;;;;;3060093;19;20002;-71
2022/09/20 01:13:22;;;;;;;10.80;2.25;;;11.00;99.90;;;;;;3060884;19;20018;-71
2022/09/20 01:14:27;;;;;;;10.18;1.80;;;11.00;99.90;;;;;;3058597;19;20017;-70
2022/09/20 01:15:33;;;;;;;8.55;1.90;;;10.60;99.90;;;;;;3061799;19;20425;-70
2022/09/20 01:16:38;;;;;;;9.45;1.92;;;10.80;99.90;;;;;;3060595;19;20014;-70
2022/09/20 01:17:45;;;;;;;4.72;1.88;;;10.50;99.90;;;;;;3059663;19;20094;-70
2022/09/20 01:18:51;;;;;;;6.43;1.90;;;11.10;99.90;;;;;;3059959;19;20049;-70
2022/09/20 01:20:06;;;;;;;8.55;2.03;;;10.70;99.90;;;;;;3060479;19;20018;-70
2022/09/20 01:21:11;;;;;;;8.38;1.80;;;10.80;99.90;;;;;;3060884;19;20011;-71
2022/09/20 01:22:21;;;;;;;9.70;2.10;;;10.70;99.90;;;;;;3060057;19;20036;-70
2022/09/20 01:23:47;;;;;;;8.70;2.20;;;11.00;99.90;;;;;;3059827;19;20081;-70
2022/09/20 01:24:56;;;;;;;9.20;2.10;;;10.70;99.90;;;;;;3059088;19;20027;-70
2022/09/20 01:26:27;;;;;;;9.23;2.00;;;10.70;99.90;;;;;;3060425;19;20049;-71
2022/09/20 01:27:40;;;;;;;7.63;1.83;;;10.90;99.90;;;;;;3059994;19;20018;-70
2022/09/20 01:28:47;;;;;;;11.52;2.53;;;10.90;99.90;;;;;;3059136;19;20010;-70
2022/09/20 01:30:00;;;;;;;7.28;1.60;;;11.10;99.90;;;;;;3060020;19;20010;-71
2022/09/20 01:31:10;;;;;;;9.23;1.92;;;10.70;99.90;;;;;;3059613;19;20014;-71
2022/09/20 01:32:15;;;;;;;11.48;2.30;;;10.60;99.90;;;;;;3059768;19;20494;-70
2022/09/20 01:33:30;;;;;;;8.52;1.90;;;10.70;99.90;;;;;;3058534;19;20029;-70
2022/09/20 01:34:35;;;;;;;9.45;2.05;;;10.70;99.90;;;;;;3058473;19;20023;-70
2022/09/20 01:35:42;;;;;;;10.25;2.40;;;10.60;99.90;;;;;;3058280;19;20073;-70
2022/09/20 01:36:50;;;;;;;8.65;1.90;;;10.80;99.90;;;;;;3060030;19;20533;-70
2022/09/20 01:38:06;;;;;;;11.82;2.13;;;10.60;99.90;;;;;;3059900;19;20502;-70
2022/09/20 01:39:15;;;;;;;6.68;1.80;;;10.70;99.90;;;;;;3059521;19;20079;-71
2022/09/20 01:40:28;;;;;;;10.32;1.90;;;10.60;99.90;;;;;;3060309;19;20018;-70
2022/09/20 01:41:35;;;;;;;9.60;2.03;;;10.60;99.90;;;;;;3060053;19;20101;-71
2022/09/20 01:42:58;;;;;;;5.95;2.00;;;10.80;99.90;;;;;;3058911;19;20082;-70
2022/09/20 01:44:08;;;;;;;9.20;2.22;;;11.00;99.90;;;;;;3061599;19;20022;-71
2022/09/20 01:45:22;;;;;;;9.10;2.22;;;10.60;99.90;;;;;;3059838;19;20010;-70
2022/09/20 01:46:30;;;;;;;11.05;2.30;;;10.40;99.90;;;;;;3059798;19;20014;-70
2022/09/20 01:47:41;;;;;;;8.63;1.90;;;10.60;99.90;;;;;;3059297;19;20078;-71
2022/09/20 01:48:43;;;;;;;9.02;2.10;;;10.60;99.90;;;;;;3058773;19;20158;-70
2022/09/20 01:49:56;;;;;;;10.02;1.90;;;10.60;99.90;;;;;;3059881;19;20013;-70
2022/09/20 01:51:31;;;;;;;6.20;1.80;;;10.60;99.90;;;;;;3058782;19;20018;-70
2022/09/20 01:52:57;;;;;;;9.25;2.00;;;10.60;99.90;;;;;;3059135;19;20017;-70
2022/09/20 01:54:26;;;;;;;8.18;2.00;;;11.00;99.90;;;;;;3061486;19;20010;-71
2022/09/20 01:56:06;;;;;;;6.32;2.25;;;10.50;99.90;;;;;;3059525;19;20006;-70
2022/09/20 01:57:51;;;;;;;8.77;1.70;;;10.60;99.90;;;;;;3059450;19;20017;-71
2022/09/20 01:59:24;;;;;;;8.20;1.98;;;10.50;99.90;;;;;;3059594;19;20602;-71
2022/09/20 02:00:29;;;;;;;10.73;2.00;;;10.90;99.90;;;;;;3060218;19;20006;-70
2022/09/20 02:02:12;;;;;;;5.88;2.03;;;10.60;99.90;;;;;;3059543;19;20396;-70
2022/09/20 02:03:55;;;;;;;10.85;2.50;;;10.50;99.90;;;;;;3057358;19;20488;-70
2022/09/20 02:05:02;;;;;;;;;;;10.50;99.90;;;;;;3058895;19;20022;-70
2022/09/20 02:06:22;;;;;;;6.45;1.70;;;10.50;99.90;;;;;;3059699;19;19915;-70
2022/09/20 02:07:56;;;;;;;8.73;2.10;;;10.50;99.90;;;;;;3057663;19;20011;-70
2022/09/20 02:09:20;;;;;;;7.90;1.80;;;10.60;99.90;;;;;;3057352;19;20014;-71
2022/09/20 02:10:41;;;;;;;7.93;1.75;;;10.60;99.90;;;;;;3059366;19;20015;-70
2022/09/20 02:11:58;;;;;;;11.88;1.80;;;10.70;99.90;;;;;;3059427;19;20007;-70
2022/09/20 02:13:08;;;;;;;7.75;1.63;;;10.80;99.90;;;;;;3058386;19;20475;-70
2022/09/20 02:14:28;;;;;;;9.15;1.70;;;10.60;99.90;;;;;;3059472;19;20350;-70
2022/09/20 02:15:46;;;;;;;7.18;1.52;;;10.70;99.90;;;;;;3060145;19;20010;-70
2022/09/20 02:16:52;;;;;;;8.18;1.88;;;10.80;99.90;;;;;;3059626;19;20006;-70
2022/09/20 02:18:02;;;;;;;4.13;1.58;;;11.10;99.90;;;;;;3058998;19;20018;-70
2022/09/20 02:19:41;;;;;;;9.63;1.95;;;11.10;99.90;;;;;;3059601;19;20066;-70
2022/09/20 02:20:52;;;;;;;6.10;1.65;;;10.80;99.90;;;;;;3059288;19;20022;-71
2022/09/20 02:22:09;;;;;;;7.07;1.55;;;10.90;99.90;;;;;;3059716;19;20011;-70
2022/09/20 02:23:23;;;;;;;5.50;1.42;;;10.80;99.90;;;;;;3059939;19;20021;-70
2022/09/20 02:24:35;;;;;;;5.53;1.45;;;10.70;99.90;;;;;;3058983;19;20463;-70
2022/09/20 02:25:54;;;;;;;6.47;1.70;;;10.80;99.90;;;;;;3058986;19;20002;-70
2022/09/20 02:27:11;;;;;;;6.15;1.58;;;10.60;99.90;;;;;;3059444;19;20006;-71
2022/09/20 02:28:31;;;;;;;7.15;1.50;;;10.80;99.90;;;;;;3059173;19;20017;-72
2022/09/20 02:29:46;;;;;;;7.85;1.88;;;10.70;99.90;;;;;;3058943;19;20371;-70
2022/09/20 02:31:01;;;;;;;4.80;1.38;;;11.10;99.90;;;;;;3059321;19;20078;-71
2022/09/20 02:32:40;;;;;;;11.77;1.65;;;11.10;99.90;;;;;;3059154;19;20541;-71
2022/09/20 02:33:59;;;;;;;5.55;1.50;;;10.70;99.90;;;;;;3060215;19;20018;-71
2022/09/20 02:35:21;;;;;;;5.72;1.50;;;10.70;99.90;;;;;;3058252;19;20021;-70
2022/09/20 02:36:35;;;;;;;4.18;1.58;;;11.10;99.90;;;;;;3058890;19;19998;-70
2022/09/20 02:38:11;;;;;;;3.88;1.50;;;10.70;99.90;;;;;;3059399;19;20011;-70
2022/09/20 02:39:16;;;;;;;6.60;1.50;;;10.50;99.90;;;;;;3058812;19;20010;-70
2022/09/20 02:40:29;;;;;;;8.18;1.70;;;10.80;99.90;;;;;;3059358;19;20002;-70
2022/09/20 02:41:49;;;;;;;6.22;1.60;;;10.40;99.90;;;;;;3056806;19;20010;-70
2022/09/20 02:43:00;;;;;;;6.93;2.05;;;10.70;99.90;;;;;;3058391;19;20022;-70
2022/09/20 02:44:14;;;;;;;5.43;1.60;;;10.50;99.90;;;;;;3059133;19;20010;-70
2022/09/20 02:45:24;;;;;;;6.75;1.77;;;11.00;99.90;;;;;;3059137;19;20408;-71
2022/09/20 02:46:30;;;;;;;9.40;1.80;;;10.70;99.90;;;;;;3059280;19;20002;-71
2022/09/20 02:47:38;;;;;;;8.20;1.63;;;11.10;99.90;;;;;;3058515;19;20018;-71
2022/09/20 02:48:47;;;;;;;6.88;2.00;;;10.70;99.90;;;;;;3059224;19;20129;-70
2022/09/20 02:50:04;;;;;;;7.50;2.08;;;11.00;99.90;;;;;;3060428;19;20015;-70
2022/09/20 02:51:19;;;;;;;9.98;1.90;;;10.60;99.90;;;;;;3058905;19;20011;-70
2022/09/20 02:52:30;;;;;;;8.57;1.85;;;10.70;99.90;;;;;;3058804;19;20124;-71
2022/09/20 02:53:40;;;;;;;7.40;2.03;;;10.50;99.90;;;;;;3057455;19;20011;-70
2022/09/20 02:54:50;;;;;;;7.65;1.80;;;10.40;99.90;;;;;;3059794;19;20034;-70
2022/09/20 02:56:04;;;;;;;6.88;1.70;;;10.60;99.90;;;;;;3058941;19;20475;-70
2022/09/20 02:57:16;;;;;;;8.85;1.80;;;10.70;99.90;;;;;;3055693;19;20031;-71
2022/09/20 02:58:35;;;;;;;5.38;1.40;;;10.50;99.90;;;;;;3057293;19;20033;-71
2022/09/20 02:59:45;;;;;;;5.40;1.52;;;10.60;99.90;;;;;;3057957;19;20014;-70
2022/09/20 03:00:56;;;;;;;8.63;1.80;;;10.60;99.90;;;;;;3056996;19;20041;-71
2022/09/20 03:02:06;;;;;;;6.85;1.77;;;10.40;99.90;;;;;;3055594;19;20021;-71
2022/09/20 03:03:16;;;;;;;6.65;1.40;;;10.60;99.90;;;;;;3059195;19;20027;-71
2022/09/20 03:04:31;;;;;;;7.90;1.80;;;10.60;99.90;;;;;;3059921;19;20621;-71
2022/09/20 03:05:47;;;;;;;6.80;1.35;;;10.80;99.90;;;;;;3058028;19;20404;-71
2022/09/20 03:06:56;;;;;;;8.00;1.95;;;10.50;99.90;;;;;;3057843;19;20022;-71
2022/09/20 03:08:15;;;;;;;8.02;1.90;;;10.60;99.90;;;;;;3058700;19;20018;-71
2022/09/20 03:09:27;;;;;;;5.00;1.55;;;10.60;99.90;;;;;;3058785;19;20010;-71
2022/09/20 03:10:40;;;;;;;8.82;2.28;;;10.90;99.90;;;;;;3057876;19;20351;-71
2022/09/20 03:11:50;;;;;;;4.68;1.50;;;10.50;99.90;;;;;;3058658;19;20018;-71
2022/09/20 03:13:19;;;;;;;6.25;1.67;;;10.40;99.90;;;;;;3057484;19;20475;-71
2022/09/20 03:14:26;;;;;;;5.40;1.60;;;10.90;99.90;;;;;;3058683;19;20015;-71
2022/09/20 03:15:46;;;;;;;5.38;1.70;;;10.50;99.90;;;;;;3058776;19;20010;-71
2022/09/20 03:17:04;;;;;;;5.93;1.55;;;10.40;99.90;;;;;;3058693;19;20090;-71
2022/09/20 03:18:13;;;;;;;6.85;1.50;;;10.30;99.90;;;;;;3059650;19;20384;-71
2022/09/20 03:19:27;;;;;;;7.07;1.92;;;10.60;99.90;;;;;;3058600;19;20010;-71
2022/09/20 03:20:37;;;;;;;4.93;1.58;;;10.50;99.90;;;;;;3057871;19;20022;-71
2022/09/20 03:21:51;;;;;;;4.22;1.50;;;10.60;99.90;;;;;;3058726;19;20006;-72
2022/09/20 03:23:02;;;;;;;8.93;1.70;;;10.80;99.90;;;;;;3058259;19;20097;-71
2022/09/20 03:24:12;;;;;;;10.18;2.20;;;10.40;99.90;;;;;;3058754;19;20490;-71
2022/09/20 03:25:43;;;;;;;6.07;2.13;;;10.30;99.90;;;;;;3057226;19;20021;-71
2022/09/20 03:26:54;;;;;;;6.93;1.90;;;10.60;99.90;;;;;;3058624;19;20006;-71
2022/09/20 03:28:10;;;;;;;6.82;1.80;;;10.20;99.90;;;;;;3058627;19;20010;-71
2022/09/20 03:29:29;;;;;;;5.97;1.77;;;10.40;99.90;;;;;;3058246;19;20022;-71
2022/09/20 03:30:50;;;;;;;5.88;1.67;;;10.20;99.90;;;;;;3058454;19;20006;-71
2022/09/20 03:32:07;;;;;;;9.52;1.83;;;10.10;99.90;;;;;;3058617;19;20395;-71
2022/09/20 03:33:20;;;;;;;6.25;1.45;;;9.90;99.90;;;;;;3058220;19;20014;-71
2022/09/20 03:34:36;;;;;;;4.75;1.52;;;9.90;99.90;;;;;;3058568;19;20010;-71
2022/09/20 03:35:52;;;;;;;7.53;1.88;;;9.80;99.90;;;;;;3055510;19;20026;-71
2022/09/20 03:37:20;;;;;;;5.28;1.63;;;10.00;99.90;;;;;;3052069;19;20018;-71
2022/09/20 03:38:41;;;;;;;6.80;1.90;;;9.90;99.90;;;;;;3058041;19;20364;-71
2022/09/20 03:40:17;;;;;;;7.40;1.70;;;9.80;99.90;;;;;;3057917;19;20002;-71
2022/09/20 03:41:40;;;;;;;9.40;2.05;;;9.70;99.90;;;;;;3058141;19;20022;-71
2022/09/20 03:42:46;;;;;;;9.00;2.03;;;9.90;99.90;;;;;;3058460;19;20048;-71
2022/09/20 03:44:01;;;;;;;6.93;1.70;;;9.90;99.90;;;;;;3058513;19;19998;-71
2022/09/20 03:45:31;;;;;;;5.82;2.13;;;9.80;99.90;;;;;;3058495;19;20015;-71
2022/09/20 03:46:42;;;;;;;7.53;2.05;;;10.00;99.90;;;;;;3058427;19;20372;-71
2022/09/20 03:48:12;;;;;;;9.68;1.70;;;9.80;99.90;;;;;;3057934;19;20021;-71
2022/09/20 03:49:46;;;;;;;7.25;1.83;;;10.10;99.90;;;;;;3058509;19;20036;-71
2022/09/20 03:51:05;;;;;;;7.22;1.65;;;9.90;99.90;;;;;;3058877;19;20015;-71
2022/09/20 03:52:18;;;;;;;8.40;2.20;;;9.50;99.90;;;;;;3058564;19;20010;-71
2022/09/20 03:54:05;;;;;;;6.60;1.77;;;10.00;99.90;;;;;;3058416;19;20043;-71
2022/09/20 03:55:29;;;;;;;7.40;1.60;;;9.40;99.90;;;;;;3058043;19;20018;-70
2022/09/20 03:57:00;;;;;;;8.80;2.00;;;9.60;99.90;;;;;;3059956;19;20510;-72
2022/09/20 03:58:18;;;;;;;5.35;1.60;;;9.30;99.90;;;;;;3058192;19;20010;-72
2022/09/20 03:59:43;;;;;;;5.03;1.95;;;9.50;99.90;;;;;;3058309;19;20351;-72
2022/09/20 04:01:11;;;;;;;8.80;1.92;;;9.60;99.90;;;;;;3058393;19;20003;-73
2022/09/20 04:02:29;;;;;;;6.45;1.67;;;9.60;99.90;;;;;;3056747;19;20054;-72
2022/09/20 04:03:40;;;;;;;10.90;2.15;;;9.50;99.90;;;;;;3058199;19;20366;-72
2022/09/20 04:04:47;;;;;;;5.55;1.70;;;9.50;99.90;;;;;;3057973;19;20007;-77
2022/09/20 04:06:22;;;;;;;7.13;1.75;;;9.70;99.90;;;;;;3058167;19;20009;-70
2022/09/20 04:07:42;;;;;;;6.57;1.90;;;9.20;99.90;;;;;;3056809;19;20020;-71
2022/09/20 04:09:08;;;;;;;9.63;1.90;;;9.40;99.90;;;;;;3058511;19;20535;-71
2022/09/20 04:10:42;;;;;;;5.90;1.90;;;9.20;99.90;;;;;;3058640;19;20043;-74
2022/09/20 04:11:52;;;;;;;6.68;1.55;;;9.40;99.90;;;;;;3057305;19;20006;-71
2022/09/20 04:13:10;;;;;;;9.13;1.75;;;9.40;99.90;;;;;;3057101;19;20010;-71
2022/09/20 04:14:17;;;;;;;4.75;1.98;;;9.40;99.90;;;;;;3058728;19;20014;-71
2022/09/20 04:15:31;;;;;;;5.60;1.92;;;9.40;99.90;;;;;;3058253;19;20034;-71
2022/09/20 04:16:42;;;;;;;5.82;1.98;;;9.40;99.90;;;;;;3058030;19;20011;-70
2022/09/20 04:17:57;;;;;;;7.78;2.15;;;9.30;99.90;;;;;;3057560;19;20033;-70
2022/09/20 04:19:06;;;;;;;7.53;2.00;;;9.20;99.90;;;;;;3057755;19;20723;-70
2022/09/20 04:20:19;;;;;;;7.03;1.67;;;9.30;99.90;;;;;;3057717;19;20002;-71
2022/09/20 04:21:30;;;;;;;3.95;1.73;;;9.40;99.90;;;;;;3058401;19;20018;-71
2022/09/20 04:22:32;;;;;;;5.70;2.08;;;9.20;99.90;;;;;;3059691;19;20010;-71
2022/09/20 04:23:52;;;;;;;8.18;1.80;;;9.30;99.90;;;;;;3055029;19;20018;-70
2022/09/20 04:24:58;;;;;;;7.05;1.83;;;9.20;99.90;;;;;;3057711;19;20029;-71
2022/09/20 04:26:04;;;;;;;10.68;1.90;;;9.30;99.90;;;;;;3058981;19;20029;-70
2022/09/20 04:27:16;;;;;;;6.70;2.13;;;9.20;99.90;;;;;;3056746;19;20010;-70
2022/09/20 04:28:24;;;;;;;7.15;1.95;;;9.00;99.90;;;;;;3058677;19;20371;-70
2022/09/20 04:29:36;;;;;;;5.78;1.70;;;8.90;99.90;;;;;;3059291;19;20484;-71
2022/09/20 04:30:42;;;;;;;8.60;1.83;;;9.40;99.90;;;;;;3059220;19;20018;-70
2022/09/20 04:31:52;;;;;;;9.55;1.95;;;10.60;99.90;;;;;;3060854;19;19998;-70
2022/09/20 04:33:03;;;;;;;8.65;1.90;;;9.40;99.90;;;;;;3061122;19;20011;-70
2022/09/20 04:34:12;;;;;;;5.88;2.03;;;9.40;99.90;;;;;;3060881;19;20478;-71
2022/09/20 04:36:57;;;;;;;7.55;2.28;;;9.00;99.90;;;;;;3060305;19;20011;-71
2022/09/20 04:38:05;;;;;;;6.38;2.28;;;9.10;99.90;;;;;;3061346;19;20041;-70
2022/09/20 04:39:20;;;;;;;8.70;2.20;;;9.00;99.90;;;;;;3060040;19;20041;-70
2022/09/20 04:40:35;;;;;;;4.68;1.83;;;9.20;99.90;;;;;;3060037;19;20371;-70
2022/09/20 04:42:08;;;;;;;6.70;2.10;;;9.10;99.90;;;;;;3060576;19;20022;-70
2022/09/20 04:43:38;;;;;;;5.00;1.85;;;9.00;99.90;;;;;;3060841;19;20007;-70
2022/09/20 04:45:12;;;;;;;7.22;1.75;;;9.10;99.90;;;;;;3060568;19;20018;-70
2022/09/20 04:46:41;;;;;;;7.40;2.00;;;8.60;99.90;;;;;;3060247;19;20007;-70
2022/09/20 04:48:16;;;;;;;5.18;1.90;;;8.80;99.90;;;;;;3060317;19;20010;-71
2022/09/20 04:49:51;;;;;;;8.15;2.05;;;8.80;99.90;;;;;;3061168;19;20033;-70
2022/09/20 04:51:39;;;;;;;8.00;1.75;;;8.60;99.90;;;;;;3059555;19;20014;-71
2022/09/20 04:53:13;;;;;;;6.03;2.15;;;8.70;99.90;;;;;;3061144;19;20011;-70
2022/09/20 04:54:47;;;;;;;5.85;1.85;;;8.80;99.90;;;;;;3060260;19;20022;-70
2022/09/20 04:55:53;;;;;;;4.78;1.75;;;8.60;99.90;;;;;;3059718;19;20010;-70
2022/09/20 04:57:28;;;;;;;6.10;1.60;;;9.00;99.90;;;;;;3060678;19;20379;-70
2022/09/20 04:58:45;;;;;;;4.65;1.75;;;8.70;99.90;;;;;;3059282;19;20026;-70
2022/09/20 05:00:03;;;;;;;10.18;2.45;;;8.80;99.90;;;;;;3060661;19;20031;-69
2022/09/20 05:01:48;;;;;;;5.72;1.98;;;8.70;99.90;;;;;;3060485;19;20370;-69
2022/09/20 05:03:28;;;;;;;8.43;1.88;;;8.70;99.90;;;;;;3059187;19;20011;-70
2022/09/20 05:05:05;;;;;;;7.72;1.70;;;9.00;99.90;;;;;;3059221;19;20015;-70
2022/09/20 05:06:44;;;;;;;3.13;1.98;;;8.60;99.90;;;;;;3057834;19;20067;-69
2022/09/20 05:08:31;;;;;;;8.60;1.90;;;8.60;99.90;;;;;;3058786;19;20020;-69
2022/09/20 05:10:14;;;;;;;4.90;1.60;;;8.70;99.90;;;;;;3060031;19;20014;-71
2022/09/20 05:11:46;;;;;;;6.10;1.80;;;8.90;99.90;;;;;;3060705;19;20021;-70
2022/09/20 05:13:16;;;;;;;8.23;1.90;;;8.60;99.90;;;;;;3059562;19;20471;-70
2022/09/20 05:14:54;;;;;;;7.25;2.47;;;8.60;99.90;;;;;;3060453;19;20061;-70
2022/09/20 05:16:01;;;;;;;6.82;2.45;;;8.70;99.90;;;;;;3059976;19;20343;-70
2022/09/20 05:17:18;;;;;;;5.65;1.73;;;9.00;99.90;;;;;;3058995;19;20018;-70
2022/09/20 05:18:47;;;;;;;7.13;1.95;;;8.60;99.90;;;;;;3060230;19;20031;-70
2022/09/20 05:20:09;;;;;;;4.90;2.03;;;8.90;99.90;;;;;;3060296;19;20019;-70
2022/09/20 05:21:31;;;;;;;6.47;1.92;;;8.60;99.90;;;;;;3060227;19;20010;-71
2022/09/20 05:23:11;;;;;;;4.15;1.60;;;8.90;99.90;;;;;;3060458;19;20467;-70
2022/09/20 05:24:47;;;;;;;6.40;1.58;;;8.40;99.90;;;;;;3059372;19;20481;-70
2022/09/20 05:26:07;;;;;;;6.85;1.60;;;8.50;99.90;;;;;;3059173;19;20018;-70
2022/09/20 05:27:23;;;;;;;8.88;1.83;;;8.60;99.90;;;;;;3059290;19;20401;-70
2022/09/20 05:28:29;;;;;;;6.00;1.77;;;8.60;99.90;;;;;;3060322;19;20014;-70
2022/09/20 05:29:41;;;;;;;6.35;1.90;;;8.70;99.90;;;;;;3059437;19;20018;-70
2022/09/20 05:30:46;;;;;;;7.90;1.80;;;8.70;99.90;;;;;;3058387;19;20010;-69
2022/09/20 05:31:56;;;;;;;5.07;1.60;;;8.70;99.90;;;;;;3060762;19;20531;-70
2022/09/20 05:33:11;;;;;;;4.32;1.70;;;8.50;99.90;;;;;;3059913;19;20018;-69
2022/09/20 05:34:22;;;;;;;5.20;1.80;;;8.40;99.90;;;;;;3058788;19;20014;-69
2022/09/20 05:35:29;;;;;;;7.05;2.17;;;8.70;99.90;;;;;;3060461;19;20104;-69
2022/09/20 05:36:44;;;;;;;7.40;1.60;;;8.50;99.90;;;;;;3059214;19;20018;-70
2022/09/20 05:37:54;;;;;;;7.28;1.70;;;8.70;99.90;;;;;;3059683;19;20022;-70
2022/09/20 05:39:04;;;;;;;5.10;1.52;;;8.70;99.90;;;;;;3060348;19;20032;-70
2022/09/20 05:40:17;;;;;;;11.18;1.80;;;8.60;99.90;;;;;;3057311;19;20023;-69
2022/09/20 05:41:31;;;;;;;7.80;2.13;;;8.70;99.90;;;;;;3061173;19;20034;-70
2022/09/20 05:42:43;;;;;;;6.97;2.08;;;8.40;99.90;;;;;;3057513;19;20355;-70
2022/09/20 05:43:59;;;;;;;6.40;1.55;;;8.70;99.90;;;;;;3061389;19;20010;-69
2022/09/20 05:45:22;;;;;;;3.20;1.55;;;9.00;99.90;;;;;;3059224;19;20542;-70
2022/09/20 05:46:31;;;;;;;;;;;8.60;99.90;;;;;;3058168;19;20019;-70
2022/09/20 05:47:41;;;;;;;6.82;1.98;;;8.60;99.90;;;;;;3058451;19;20604;-70
2022/09/20 05:48:54;;;;;;;9.70;2.05;;;8.70;99.90;;;;;;3059752;19;20037;-70
2022/09/20 05:50:11;;;;;;;4.90;1.95;;;8.50;99.90;;;;;;3059428;19;20019;-70
2022/09/20 05:51:28;;;;;;;5.15;1.65;;;8.70;99.90;;;;;;3059505;19;20033;-71
2022/09/20 05:52:45;;;;;;;4.75;1.80;;;8.50;99.90;;;;;;3060313;19;20011;-69
2022/09/20 05:54:20;;;;;;;9.10;1.98;;;8.80;99.90;;;;;;3058865;19;20505;-71
2022/09/20 05:55:43;;;;;;;8.25;1.92;;;8.60;99.90;;;;;;3059150;19;20014;-71
2022/09/20 05:56:55;;;;;;;8.70;2.30;;;8.40;99.90;;;;;;3059985;19;20045;-71
2022/09/20 05:58:17;;;;;;;8.35;2.00;;;9.00;99.90;;;;;;3058502;19;20357;-73
2022/09/20 05:59:34;;;;;;;3.03;1.60;;;9.10;99.90;;;;;;3057938;19;21447;-71
2022/09/20 06:00:44;;;;;;;8.85;1.70;;;8.80;99.90;;;;;;3057349;19;20018;-73
2022/09/20 06:01:57;;;;;;;5.72;2.10;;;8.60;99.90;;;;;;3057546;19;20579;-71
2022/09/20 06:03:08;;;;;;;5.78;2.00;;;8.80;99.90;;;;;;3058010;19;20018;-70
2022/09/20 06:04:16;;;;;;;9.95;1.98;;;8.80;99.90;;;;;;3059146;19;20007;-70
2022/09/20 06:05:31;;;;;;;9.13;2.28;;;8.80;99.90;;;;;;3060619;19;20037;-70
2022/09/20 06:06:44;;;;;;;7.07;2.00;;;9.20;99.90;;;;;;3059443;19;20049;-71
2022/09/20 06:08:19;;;;;;;6.53;1.95;;;8.90;99.90;;;;;;3061343;19;20037;-70
2022/09/20 06:09:59;;;;;;;4.78;2.28;;;8.80;99.90;;;;;;3056990;19;20021;-71
2022/09/20 06:11:13;;;;;;;5.25;1.80;;;8.80;99.90;;;;;;3054888;19;20475;-79
2022/09/20 06:12:26;;;;;;;6.82;2.47;;;8.70;99.90;;;;;;3060485;19;20015;-74
2022/09/20 06:13:59;;;;;;;5.55;2.15;;;8.90;99.90;;;;;;3058674;19;20363;-75
2022/09/20 06:15:12;;;;;;;;;;;8.80;99.90;;;;;;3060294;19;20029;-77
2022/09/20 06:16:26;;;;;;;7.25;1.75;;;8.90;99.90;;;;;;3059480;19;20344;-77
2022/09/20 06:17:33;;;;;;;8.23;1.85;;;8.80;99.90;;;;;;3059673;19;20463;-73
2022/09/20 06:18:46;;;;;;;7.82;2.22;;;8.60;99.90;;;;;;3059431;19;20011;-74
2022/09/20 06:20:00;;;;;;;8.13;2.05;;;8.90;99.90;;;;;;3059374;19;20006;-73
2022/09/20 06:21:15;;;;;;;5.50;2.10;;;8.90;99.90;;;;;;3059021;19;20006;-74
2022/09/20 06:22:24;;;;;;;4.85;1.85;;;9.10;99.90;;;;;;3057934;19;20007;-71
2022/09/20 06:23:30;;;;;;;8.07;1.90;;;8.90;99.90;;;;;;3059492;19;20002;-71
2022/09/20 06:24:43;;;;;;;5.38;1.90;;;8.90;99.90;;;;;;3058337;19;20388;-71
2022/09/20 06:25:46;;;;;;;;;;;9.10;99.90;;;;;;3059611;19;20026;-70
2022/09/20 06:26:54;;;;;;;5.38;2.08;;;8.90;99.90;;;;;;3059345;19;19926;-71
2022/09/20 06:28:02;;;;;;;7.85;1.90;;;9.10;99.90;;;;;;3059317;19;20017;-71
2022/09/20 06:29:10;;;;;;;6.53;1.90;;;8.90;99.90;;;;;;3059304;19;20010;-71
2022/09/20 06:30:19;;;;;;;10.93;2.28;;;9.00;99.90;;;;;;3059150;19;20015;-71
2022/09/20 06:31:25;;;;;;;7.63;1.98;;;9.20;99.90;;;;;;3058221;19;20734;-71
2022/09/20 06:32:26;;;;;;;6.70;2.08;;;9.20;99.90;;;;;;3059808;19;20010;-70
2022/09/20 06:33:31;;;;;;;9.73;2.20;;;9.10;99.90;;;;;;3058485;19;20323;-70
2022/09/20 06:34:34;;;;;;;8.18;1.90;;;9.20;99.90;;;;;;3058608;19;20014;-71